Time;durP1;ratioP1;P1;durP2;ratioP2;P2;SDS_P1;SDS_P2;PMS_P1;PMS_P2;Temp;Humidity;BMP_temperature;BMP_pressure;BME280_temperature;BME280_humidity;BME280_pressure;Samples;Min_cycle;Max_cycle;Signal;HPM_P1;HPM_P2
2023/10/26 00:00:06;;;;;;;0.20;0.20;;;;;;;13.85;83.26;97636.16;335442;28;17363;-80
2023/10/26 00:00:18;;;;;;;0.17;0.17;;;;;;;13.85;83.03;97644.00;333003;29;12597;-78
2023/10/26 00:00:30;;;;;;;0.10;0.10;;;;;;;13.90;82.66;97636.59;335784;28;4503;-79
2023/10/26 00:00:42;;;;;;;0.10;0.10;;;;;;;13.89;83.09;97640.19;337429;28;4660;-79
2023/10/26 00:00:54;;;;;;;0.40;0.10;;;;;;;13.91;82.87;97642.69;336124;28;18251;-79
2023/10/26 00:01:06;;;;;;;0.40;0.10;;;;;;;13.89;82.99;97632.34;338675;28;5830;-79
2023/10/26 00:01:18;;;;;;;0.47;0.15;;;;;;;13.84;83.08;97642.31;329588;28;13117;-79
2023/10/26 00:01:30;;;;;;;0.30;0.20;;;;;;;13.82;83.30;97644.22;336340;28;5518;-79
2023/10/26 00:01:42;;;;;;;0.35;0.20;;;;;;;13.83;83.52;97651.13;336550;28;5155;-79
2023/10/26 00:01:54;;;;;;;1.02;0.20;;;;;;;13.76;83.74;97640.31;333940;28;19233;-79
2023/10/26 00:02:06;;;;;;;1.20;0.10;;;;;;;13.78;83.55;97653.25;335918;28;5415;-80
2023/10/26 00:02:18;;;;;;;1.20;0.10;;;;;;;13.84;83.67;97633.66;333430;29;10882;-78
2023/10/26 00:02:32;;;;;;;0.20;0.20;;;;;;;13.87;83.48;97639.47;336038;29;4508;-79
2023/10/26 00:02:44;;;;;;;0.20;0.20;;;;;;;13.86;83.47;97629.16;333687;28;8749;-78
2023/10/26 00:02:56;;;;;;;0.17;0.17;;;;;;;13.84;83.35;97633.66;333555;28;4839;-79
2023/10/26 00:03:08;;;;;;;0.20;0.20;;;;;;;13.81;83.76;97637.34;338725;28;4529;-79
2023/10/26 00:03:21;;;;;;;0.20;0.20;;;;;;;13.76;84.07;97642.09;336510;28;17767;-79
2023/10/26 00:03:33;;;;;;;0.20;0.20;;;;;;;13.76;84.03;97649.91;340243;28;5665;-79
2023/10/26 00:03:45;;;;;;;0.10;0.10;;;;;;;13.78;83.94;97633.19;337002;28;19552;-80
2023/10/26 00:03:57;;;;;;;0.10;0.10;;;;;;;13.82;83.77;97628.53;338672;28;4584;-80
2023/10/26 00:04:09;;;;;;;0.10;0.10;;;;;;;13.88;83.54;97641.13;337943;28;18015;-79
2023/10/26 00:04:22;;;;;;;0.10;0.10;;;;;;;13.90;83.49;97636.59;335325;28;18022;-79
2023/10/26 00:04:34;;;;;;;0.10;0.10;;;;;;;13.84;83.80;97637.09;335295;28;4550;-78
2023/10/26 00:04:46;;;;;;;0.10;0.10;;;;;;;13.73;83.88;97643.16;336227;28;5068;-80
2023/10/26 00:04:58;;;;;;;0.10;0.10;;;;;;;13.73;84.06;97643.16;336119;28;5252;-79
2023/10/26 00:05:10;;;;;;;0.13;0.13;;;;;;;13.69;83.81;97653.97;333400;28;18995;-79
2023/10/26 00:05:22;;;;;;;0.20;0.20;;;;;;;13.65;83.98;97647.31;335595;28;4508;-79
2023/10/26 00:05:34;;;;;;;0.20;0.20;;;;;;;13.67;84.18;97637.59;333648;28;17896;-79
2023/10/26 00:05:47;;;;;;;0.17;0.17;;;;;;;13.75;84.08;97637.81;336249;28;4541;-79
2023/10/26 00:05:59;;;;;;;0.50;0.10;;;;;;;13.74;84.05;97642.22;333711;28;14527;-79
2023/10/26 00:06:11;;;;;;;0.40;0.10;;;;;;;13.70;84.08;97635.59;337572;28;4603;-79
2023/10/26 00:06:23;;;;;;;0.57;0.22;;;;;;;13.73;84.16;97639.72;336205;28;4529;-79
2023/10/26 00:06:35;;;;;;;0.57;0.30;;;;;;;13.70;84.25;97624.28;334928;28;17995;-80
2023/10/26 00:06:47;;;;;;;2.28;0.40;;;;;;;13.76;84.13;97631.63;337474;28;4491;-79
2023/10/26 00:07:00;;;;;;;2.80;0.30;;;;;;;13.84;83.82;97637.09;338676;28;4587;-79
2023/10/26 00:07:14;;;;;;;2.90;0.32;;;;;;;13.83;83.85;97643.28;335632;28;17608;-80
2023/10/26 00:07:26;;;;;;;1.25;0.30;;;;;;;13.84;83.56;97637.09;336035;28;17719;-79
2023/10/26 00:07:38;;;;;;;0.20;0.10;;;;;;;13.82;83.46;97633.78;338657;28;5254;-79
2023/10/26 00:07:50;;;;;;;0.20;0.10;;;;;;;13.82;83.59;97632.94;336607;28;5219;-79
2023/10/26 00:08:02;;;;;;;0.10;0.10;;;;;;;13.87;83.55;97646.50;338288;28;4942;-80
2023/10/26 00:08:14;;;;;;;0.10;0.10;;;;;;;13.85;83.43;97644.00;338625;28;4603;-80
2023/10/26 00:08:26;;;;;;;0.10;0.10;;;;;;;13.82;83.52;97625.94;330025;28;18240;-79
2023/10/26 00:08:38;;;;;;;0.30;0.15;;;;;;;13.83;83.51;97630.22;337648;28;5414;-80
2023/10/26 00:08:50;;;;;;;0.40;0.20;;;;;;;13.82;83.53;97633.78;334690;28;16406;-79
2023/10/26 00:09:03;;;;;;;0.40;0.20;;;;;;;13.74;83.73;97636.16;337212;28;4593;-79
2023/10/26 00:09:15;;;;;;;0.20;0.20;;;;;;;13.77;83.86;97636.75;334496;28;14243;-79
2023/10/26 00:09:27;;;;;;;0.15;0.15;;;;;;;13.76;83.95;97629.03;337370;28;4532;-80
2023/10/26 00:09:39;;;;;;;0.10;0.10;;;;;;;13.81;83.82;97632.13;337467;28;4960;-79
2023/10/26 00:09:51;;;;;;;0.10;0.10;;;;;;;13.73;84.20;97630.09;329934;28;17887;-79
2023/10/26 00:10:03;;;;;;;0.10;0.10;;;;;;;13.72;83.86;97643.28;337442;28;5739;-80
2023/10/26 00:10:16;;;;;;;0.10;0.10;;;;;;;13.77;83.83;97641.97;336033;28;17774;-80
2023/10/26 00:10:28;;;;;;;0.10;0.10;;;;;;;13.79;83.75;97649.69;338748;28;4504;-79
2023/10/26 00:10:40;;;;;;;1.60;0.10;;;;;;;13.72;83.72;97651.09;336166;28;5376;-79
2023/10/26 00:10:52;;;;;;;1.70;0.13;;;;;;;13.78;83.68;97627.13;338771;28;4581;-78
2023/10/26 00:11:04;;;;;;;1.70;0.15;;;;;;;13.77;83.50;97646.38;338663;28;4829;-80
2023/10/26 00:11:16;;;;;;;0.10;0.10;;;;;;;13.81;83.33;97647.78;335650;28;17830;-79
2023/10/26 00:11:30;;;;;;;0.10;0.10;;;;;;;13.72;83.62;97638.91;337447;28;4713;-79
2023/10/26 00:11:42;;;;;;;0.17;0.17;;;;;;;13.73;84.00;97644.94;334672;28;17834;-79
2023/10/26 00:11:54;;;;;;;0.40;0.20;;;;;;;13.78;83.65;97627.13;337495;28;4675;-80
2023/10/26 00:12:06;;;;;;;3.50;0.20;;;;;;;13.83;83.48;97632.84;334909;28;16849;-79
2023/10/26 00:12:18;;;;;;;4.22;0.20;;;;;;;13.85;83.39;97632.72;337415;28;4496;-79
2023/10/26 00:12:30;;;;;;;0.88;0.20;;;;;;;13.83;83.57;97645.06;335167;28;5460;-78
2023/10/26 00:12:43;;;;;;;1.63;0.20;;;;;;;13.81;83.46;97632.13;330469;28;18504;-78
2023/10/26 00:12:55;;;;;;;1.10;0.20;;;;;;;13.77;83.56;97648.97;337438;28;5339;-79
2023/10/26 00:13:07;;;;;;;0.93;0.25;;;;;;;13.75;nan;97628.22;330857;28;4957;-79
2023/10/26 00:13:20;;;;;;;0.40;0.20;;;;;;;13.80;83.80;97640.91;336582;28;5527;-79
2023/10/26 00:13:32;;;;;;;0.28;0.20;;;;;;;13.77;83.86;97641.16;334939;28;18069;-80
2023/10/26 00:13:44;;;;;;;0.35;0.20;;;;;;;13.77;84.00;97651.59;336149;28;5131;-80
2023/10/26 00:13:56;;;;;;;0.77;0.28;;;;;;;13.80;83.91;97635.66;333719;28;5145;-79
2023/10/26 00:14:08;;;;;;;0.60;0.20;;;;;;;13.73;83.92;97644.94;336177;28;4650;-80
2023/10/26 00:14:20;;;;;;;0.20;0.20;;;;;;;13.78;83.76;97648.00;331947;28;5841;-80
2023/10/26 00:14:33;;;;;;;0.70;0.30;;;;;;;13.73;83.94;97644.94;334567;28;8730;-79
2023/10/26 00:14:45;;;;;;;0.80;0.30;;;;;;;13.71;84.21;97644.22;338718;28;5452;-79
2023/10/26 00:14:58;;;;;;;0.55;0.30;;;;;;;13.69;84.02;97638.31;334803;28;17962;-79
2023/10/26 00:15:11;;;;;;;0.20;0.20;;;;;;;13.71;84.06;97636.41;337691;28;4712;-80
2023/10/26 00:15:23;;;;;;;0.10;0.10;;;;;;;13.78;83.78;97632.34;335548;28;18023;-79
2023/10/26 00:15:35;;;;;;;0.77;0.20;;;;;;;13.80;83.65;97638.28;338863;28;4545;-79
2023/10/26 00:15:47;;;;;;;0.80;0.20;;;;;;;13.80;83.78;97646.13;335562;28;18136;-79
2023/10/26 00:15:59;;;;;;;0.32;0.25;;;;;;;13.82;83.92;97639.00;338650;28;4524;-79
2023/10/26 00:16:11;;;;;;;0.30;0.20;;;;;;;13.76;83.72;97644.69;338786;28;4589;-80
2023/10/26 00:16:23;;;;;;;0.30;0.25;;;;;;;13.76;84.06;97629.03;336148;28;17930;-80
2023/10/26 00:16:35;;;;;;;0.20;0.20;;;;;;;13.72;84.23;97638.06;339137;28;5162;-79
2023/10/26 00:16:47;;;;;;;0.10;0.10;;;;;;;13.72;84.27;97657.19;336186;28;18082;-79
2023/10/26 00:16:59;;;;;;;0.10;0.10;;;;;;;13.74;84.48;97657.03;338383;28;4449;-79
2023/10/26 00:17:11;;;;;;;0.20;0.20;;;;;;;13.72;84.07;97648.50;338655;28;5573;-79
2023/10/26 00:17:23;;;;;;;0.20;0.20;;;;;;;13.70;84.15;97658.22;334281;28;16824;-79
2023/10/26 00:17:36;;;;;;;0.50;0.22;;;;;;;13.67;84.40;97651.47;338611;28;4503;-80
2023/10/26 00:17:48;;;;;;;0.60;0.22;;;;;;;13.71;84.37;97636.41;336429;28;5349;-78
2023/10/26 00:18:00;;;;;;;0.50;0.20;;;;;;;13.68;84.18;97647.94;338531;28;5037;-79
2023/10/26 00:18:13;;;;;;;0.20;0.10;;;;;;;13.66;84.60;97644.59;339093;28;4631;-79
2023/10/26 00:18:25;;;;;;;0.10;0.10;;;;;;;13.69;84.63;97635.69;335375;28;17300;-79
2023/10/26 00:18:37;;;;;;;0.20;0.20;;;;;;;13.66;84.50;97656.81;333181;28;4629;-79
2023/10/26 00:18:50;;;;;;;0.17;0.15;;;;;;;13.74;84.36;97649.22;334896;28;17951;-80
2023/10/26 00:19:03;;;;;;;0.20;0.10;;;;;;;13.83;84.24;97645.06;338034;28;5277;-79
2023/10/26 00:19:15;;;;;;;0.80;0.20;;;;;;;13.78;84.13;97654.09;332544;28;18223;-79
2023/10/26 00:19:27;;;;;;;0.60;0.15;;;;;;;13.74;84.36;97667.47;337792;28;4549;-79
2023/10/26 00:19:39;;;;;;;0.25;0.20;;;;;;;13.84;84.13;97642.31;335250;28;18198;-79
2023/10/26 00:19:52;;;;;;;0.20;0.17;;;;;;;13.84;83.80;97657.97;337711;28;4698;-79
2023/10/26 00:20:06;;;;;;;0.40;0.20;;;;;;;13.86;83.63;97650.03;335343;28;13558;-78
2023/10/26 00:20:18;;;;;;;0.35;0.20;;;;;;;13.84;83.71;97647.53;334504;28;4558;-79
2023/10/26 00:20:30;;;;;;;0.20;0.20;;;;;;;13.79;83.80;97649.69;335598;28;18910;-79
2023/10/26 00:20:43;;;;;;;0.20;0.20;;;;;;;13.74;84.16;97650.06;339107;28;4534;-79
2023/10/26 00:20:57;;;;;;;0.10;0.10;;;;;;;13.67;84.19;97655.88;336049;28;18027;-79
2023/10/26 00:21:09;;;;;;;0.10;0.10;;;;;;;13.72;84.46;97653.72;336131;28;16563;-79
2023/10/26 00:21:21;;;;;;;0.10;0.10;;;;;;;13.70;84.30;97647.78;339025;28;4580;-80
2023/10/26 00:21:34;;;;;;;0.10;0.10;;;;;;;13.65;84.64;97644.72;331804;28;4711;-79
2023/10/26 00:21:46;;;;;;;0.17;0.17;;;;;;;13.57;84.90;97655.75;338574;28;5309;-79
2023/10/26 00:21:57;;;;;;;0.13;0.13;;;;;;;13.61;84.96;97656.34;338357;28;4531;-79
2023/10/26 00:22:09;;;;;;;0.10;0.10;;;;;;;13.59;84.98;97649.44;334654;28;18057;-79
2023/10/26 00:22:22;;;;;;;0.30;0.20;;;;;;;13.68;84.73;97649.69;337317;28;5834;-79
2023/10/26 00:22:34;;;;;;;0.30;0.20;;;;;;;13.70;84.54;97650.41;334962;28;19451;-78
2023/10/26 00:22:46;;;;;;;0.20;0.20;;;;;;;13.70;84.70;97645.16;337445;28;4526;-79
2023/10/26 00:22:59;;;;;;;0.30;0.20;;;;;;;13.68;84.78;97647.94;337379;28;4714;-79
2023/10/26 00:23:11;;;;;;;0.45;0.20;;;;;;;13.64;84.99;97662.13;335330;28;5376;-79
2023/10/26 00:23:23;;;;;;;0.20;0.20;;;;;;;13.69;84.69;97649.56;337315;28;4517;-79
2023/10/26 00:23:35;;;;;;;0.20;0.17;;;;;;;13.62;84.82;97652.75;335954;28;17816;-80
2023/10/26 00:23:47;;;;;;;0.10;0.10;;;;;;;13.59;85.04;97649.44;338113;28;4658;-79
2023/10/26 00:23:59;;;;;;;0.20;0.10;;;;;;;13.64;85.17;97650.88;337411;28;5210;-80
2023/10/26 00:24:12;;;;;;;0.50;0.10;;;;;;;13.68;85.09;97647.94;333744;28;18219;-79
2023/10/26 00:24:24;;;;;;;0.70;0.20;;;;;;;13.64;85.14;97656.91;337801;28;5401;-80
2023/10/26 00:24:37;;;;;;;1.15;0.20;;;;;;;13.65;85.41;97660.38;334401;28;16112;-80
2023/10/26 00:24:50;;;;;;;1.90;0.20;;;;;;;13.61;85.19;97657.16;337052;28;4690;-80
2023/10/26 00:25:03;;;;;;;2.13;0.20;;;;;;;13.62;85.30;97658.81;332873;29;17922;-80
2023/10/26 00:25:15;;;;;;;0.40;0.20;;;;;;;13.64;85.23;97650.88;333246;28;12931;-79
2023/10/26 00:25:27;;;;;;;0.40;0.20;;;;;;;13.54;85.52;97646.38;335721;28;4644;-79
2023/10/26 00:25:39;;;;;;;0.17;0.10;;;;;;;13.51;86.08;97646.59;338637;28;5145;-79
2023/10/26 00:25:51;;;;;;;0.20;0.10;;;;;;;13.52;85.98;97653.50;334632;28;17813;-79
2023/10/26 00:26:03;;;;;;;1.23;0.20;;;;;;;13.55;85.96;97648.03;337436;28;5554;-79
2023/10/26 00:26:15;;;;;;;1.38;0.20;;;;;;;13.55;85.98;97644.59;334364;28;19136;-79
2023/10/26 00:26:27;;;;;;;0.40;0.20;;;;;;;13.54;85.76;97646.38;338634;28;4532;-79
2023/10/26 00:26:40;;;;;;;0.43;0.20;;;;;;;13.59;85.68;97646.00;338751;28;4527;-79
2023/10/26 00:26:52;;;;;;;0.20;0.20;;;;;;;13.59;85.45;97649.44;335060;28;18015;-79
2023/10/26 00:27:05;;;;;;;0.20;0.20;;;;;;;13.60;85.39;97650.28;337572;28;5086;-79
2023/10/26 00:27:17;;;;;;;0.10;0.10;;;;;;;13.61;85.41;97653.72;336374;28;5435;-79
2023/10/26 00:27:29;;;;;;;0.10;0.10;;;;;;;13.63;85.46;97652.66;334539;28;5603;-80
2023/10/26 00:27:41;;;;;;;0.10;0.10;;;;;;;13.61;85.54;97640.69;335858;28;16855;-79
2023/10/26 00:27:53;;;;;;;0.10;0.10;;;;;;;13.64;85.47;97662.13;338873;28;5820;-79
2023/10/26 00:28:05;;;;;;;0.10;0.10;;;;;;;13.64;85.31;97650.88;337641;28;4800;-80
2023/10/26 00:28:17;;;;;;;0.13;0.13;;;;;;;13.63;85.53;97650.03;334925;28;18812;-79
2023/10/26 00:28:29;;;;;;;0.20;0.20;;;;;;;13.67;85.36;97645.44;337526;28;4467;-80
2023/10/26 00:28:41;;;;;;;0.22;0.22;;;;;;;13.70;85.36;97651.25;334239;28;17622;-79
2023/10/26 00:28:53;;;;;;;0.10;0.10;;;;;;;13.67;85.13;97650.66;336600;28;17714;-79
2023/10/26 00:29:05;;;;;;;0.20;0.20;;;;;;;13.64;85.09;97661.31;338606;28;5112;-80
2023/10/26 00:29:17;;;;;;;0.20;0.20;;;;;;;13.70;84.99;97653.00;336600;28;18290;-79
2023/10/26 00:29:29;;;;;;;0.20;0.20;;;;;;;13.65;85.05;97657.75;338977;28;5088;-80
2023/10/26 00:29:42;;;;;;;0.20;0.20;;;;;;;13.66;85.31;97664.63;336492;28;4662;-79
2023/10/26 00:29:54;;;;;;;0.20;0.13;;;;;;;13.57;85.67;97663.56;338874;28;5351;-79
2023/10/26 00:30:08;;;;;;;0.20;0.17;;;;;;;13.57;85.72;97634.84;338481;28;4699;-79
2023/10/26 00:30:20;;;;;;;0.30;0.13;;;;;;;13.65;85.33;97657.75;331284;28;17745;-79
2023/10/26 00:30:33;;;;;;;0.30;0.20;;;;;;;13.69;85.33;97660.00;335053;28;4889;-78
2023/10/26 00:30:45;;;;;;;0.15;0.15;;;;;;;13.67;85.04;97667.13;337523;28;4619;-80
2023/10/26 00:30:57;;;;;;;0.10;0.10;;;;;;;13.60;85.36;97660.72;334521;28;13179;-78
2023/10/26 00:31:09;;;;;;;0.20;0.20;;;;;;;13.64;85.45;97658.69;337689;28;4654;-79
2023/10/26 00:31:21;;;;;;;0.20;0.20;;;;;;;13.61;85.78;97649.34;337569;28;5024;-79
2023/10/26 00:31:33;;;;;;;0.22;0.20;;;;;;;13.63;85.49;97654.44;334631;28;17781;-79
2023/10/26 00:31:45;;;;;;;0.20;0.20;;;;;;;13.61;85.65;97661.56;329680;28;4525;-79
2023/10/26 00:31:57;;;;;;;0.20;0.20;;;;;;;13.62;85.58;97650.16;333291;29;13656;-79
2023/10/26 00:32:09;;;;;;;0.98;0.20;;;;;;;13.66;85.58;97656.81;335870;29;4473;-79
2023/10/26 00:32:21;;;;;;;1.27;0.20;;;;;;;13.70;85.46;97650.41;337134;28;4504;-79
2023/10/26 00:32:33;;;;;;;1.23;0.20;;;;;;;13.66;85.30;97655.03;334698;28;18054;-79
2023/10/26 00:32:45;;;;;;;1.10;0.20;;;;;;;13.56;85.66;97660.13;338980;28;5009;-80
2023/10/26 00:32:58;;;;;;;1.00;0.20;;;;;;;13.51;86.02;97645.78;338322;28;17811;-80
2023/10/26 00:33:10;;;;;;;0.20;0.20;;;;;;;13.57;85.90;97661.78;336243;28;17653;-80
2023/10/26 00:33:22;;;;;;;1.60;0.20;;;;;;;13.56;86.06;97664.50;333906;28;4518;-80
2023/10/26 00:33:34;;;;;;;1.60;0.30;;;;;;;13.56;86.02;97657.53;334780;28;19545;-79
2023/10/26 00:33:46;;;;;;;0.20;0.20;;;;;;;13.52;85.93;97658.72;337936;28;4708;-80
2023/10/26 00:33:58;;;;;;;0.20;0.20;;;;;;;13.62;85.91;97652.75;334981;28;17983;-79
2023/10/26 00:34:10;;;;;;;0.20;0.20;;;;;;;13.64;85.93;97653.47;339010;28;4802;-80
2023/10/26 00:34:22;;;;;;;0.13;0.10;;;;;;;13.61;85.82;97648.50;338520;28;4902;-80
2023/10/26 00:34:35;;;;;;;0.15;0.15;;;;;;;13.59;85.71;97648.63;331648;28;18017;-78
2023/10/26 00:34:47;;;;;;;0.20;0.17;;;;;;;13.53;85.95;97660.34;337385;28;4512;-79
2023/10/26 00:34:59;;;;;;;0.25;0.15;;;;;;;13.58;85.73;97653.03;334367;28;18493;-79
2023/10/26 00:35:11;;;;;;;0.22;0.17;;;;;;;13.66;85.75;97648.97;336156;28;4596;-79
2023/10/26 00:35:23;;;;;;;3.38;0.47;;;;;;;13.70;85.43;97658.22;332120;28;18306;-79
2023/10/26 00:35:35;;;;;;;4.40;0.60;;;;;;;13.72;85.39;97653.72;335574;28;5336;-79
2023/10/26 00:35:47;;;;;;;4.00;0.45;;;;;;;13.76;85.19;97649.91;336417;28;4673;-79
2023/10/26 00:35:59;;;;;;;0.10;0.10;;;;;;;13.78;85.10;97654.09;334207;28;18108;-79
2023/10/26 00:36:11;;;;;;;0.20;0.20;;;;;;;13.77;85.05;97652.41;331581;28;4659;-80
2023/10/26 00:36:23;;;;;;;0.20;0.20;;;;;;;13.80;85.01;97640.91;336656;28;10221;-79
2023/10/26 00:36:35;;;;;;;0.22;0.22;;;;;;;13.85;84.52;97658.84;336101;28;17969;-79
2023/10/26 00:36:47;;;;;;;0.50;0.32;;;;;;;13.74;84.99;97646.59;338960;28;4510;-79
2023/10/26 00:36:59;;;;;;;0.57;0.38;;;;;;;13.72;84.77;97674.59;336657;28;7487;-79
2023/10/26 00:37:11;;;;;;;0.80;0.20;;;;;;;13.78;84.78;97653.25;339319;28;5139;-81
2023/10/26 00:37:23;;;;;;;0.70;0.20;;;;;;;13.76;84.84;97653.38;338455;28;5498;-79
2023/10/26 00:37:35;;;;;;;0.80;0.20;;;;;;;13.70;85.44;97664.31;331972;28;17693;-79
2023/10/26 00:37:47;;;;;;;0.13;0.13;;;;;;;13.74;84.94;97659.66;338821;28;4534;-79
2023/10/26 00:37:59;;;;;;;1.00;0.13;;;;;;;13.81;84.71;97641.75;334720;28;18109;-79
2023/10/26 00:38:11;;;;;;;1.10;0.20;;;;;;;13.77;84.56;97648.97;337668;28;5391;-79
2023/10/26 00:38:23;;;;;;;1.17;0.28;;;;;;;13.81;84.66;97632.13;335710;28;4616;-79
2023/10/26 00:38:35;;;;;;;0.50;0.30;;;;;;;13.73;84.52;97647.56;333721;29;17862;-79
2023/10/26 00:38:47;;;;;;;0.80;0.20;;;;;;;13.72;84.75;97653.72;337411;28;4535;-79
2023/10/26 00:38:59;;;;;;;0.77;0.10;;;;;;;13.69;85.37;97659.19;337051;28;5437;-79
2023/10/26 00:39:11;;;;;;;0.47;0.20;;;;;;;13.66;85.20;97659.41;330581;28;18286;-79
2023/10/26 00:39:24;;;;;;;0.40;0.30;;;;;;;13.70;85.22;97653.84;337908;28;4551;-79
2023/10/26 00:39:36;;;;;;;0.40;0.30;;;;;;;13.61;85.38;97651.13;334923;28;18061;-79
2023/10/26 00:39:48;;;;;;;0.20;0.20;;;;;;;13.64;85.54;97648.25;337201;28;4774;-79
2023/10/26 00:40:00;;;;;;;0.25;0.20;;;;;;;13.64;85.56;97649.09;336080;28;13673;-80
2023/10/26 00:40:12;;;;;;;0.55;0.22;;;;;;;13.67;85.49;97656.69;340139;28;5234;-79
2023/10/26 00:40:24;;;;;;;0.70;0.30;;;;;;;13.70;85.50;97650.41;340064;28;5076;-79
2023/10/26 00:40:36;;;;;;;1.20;0.30;;;;;;;13.70;85.41;97653.00;337385;28;18248;-79
2023/10/26 00:40:48;;;;;;;1.00;0.20;;;;;;;13.66;85.45;97660.25;339846;28;5034;-79
2023/10/26 00:41:00;;;;;;;0.77;0.20;;;;;;;13.65;85.43;97652.53;336296;28;17683;-79
2023/10/26 00:41:12;;;;;;;0.30;0.20;;;;;;;13.62;85.65;97660.59;337401;28;5348;-80
2023/10/26 00:41:24;;;;;;;0.20;0.20;;;;;;;13.66;85.52;97649.81;335745;28;12512;-79
2023/10/26 00:41:37;;;;;;;0.20;0.20;;;;;;;13.70;85.71;97650.41;337999;28;17582;-80
2023/10/26 00:41:50;;;;;;;0.20;0.20;;;;;;;13.71;85.49;97649.47;339354;28;5073;-79
2023/10/26 00:42:03;;;;;;;0.13;0.13;;;;;;;13.76;85.36;97657.75;336114;28;18598;-79
2023/10/26 00:42:15;;;;;;;0.15;0.15;;;;;;;13.79;85.10;97654.91;336958;28;5286;-78
2023/10/26 00:42:27;;;;;;;0.20;0.13;;;;;;;13.82;85.14;97653.84;338706;28;4575;-80
2023/10/26 00:42:39;;;;;;;0.20;0.20;;;;;;;13.77;85.39;97656.81;338488;28;4939;-80
2023/10/26 00:42:51;;;;;;;0.20;0.20;;;;;;;13.61;85.42;97670.22;334575;28;18393;-79
2023/10/26 00:43:04;;;;;;;0.30;0.30;;;;;;;13.57;86.00;97645.31;336930;28;5502;-79
2023/10/26 00:43:21;;;;;;;0.25;0.25;;;;;;;13.54;86.07;97666.41;333688;28;5664;-80
2023/10/26 00:43:33;;;;;;;0.90;0.28;;;;;;;13.67;85.84;97650.66;331858;29;17689;-79
2023/10/26 00:43:47;;;;;;;1.10;0.30;;;;;;;13.67;85.23;97655.88;334529;29;5294;-79
2023/10/26 00:43:59;;;;;;;0.90;0.20;;;;;;;13.66;85.44;97659.41;333286;29;18054;-79
2023/10/26 00:44:11;;;;;;;0.10;0.10;;;;;;;13.64;85.09;97658.69;335072;28;11457;-79
2023/10/26 00:44:23;;;;;;;0.20;0.20;;;;;;;13.58;85.62;97655.63;336412;28;5376;-79
2023/10/26 00:44:35;;;;;;;0.20;0.20;;;;;;;13.65;85.31;97652.53;335586;29;4560;-79
2023/10/26 00:44:49;;;;;;;0.15;0.15;;;;;;;13.58;85.52;97660.84;328168;29;17938;-79
2023/10/26 00:45:01;;;;;;;1.20;0.20;;;;;;;13.65;85.60;97655.16;333314;28;16453;-79
2023/10/26 00:45:13;;;;;;;1.10;0.10;;;;;;;13.56;85.89;97660.13;336998;28;4615;-79
2023/10/26 00:45:31;;;;;;;0.20;0.15;;;;;;;13.55;86.09;97650.63;338595;28;4778;-79
2023/10/26 00:45:43;;;;;;;0.30;0.20;;;;;;;13.44;86.40;97655.84;336218;28;17805;-79
2023/10/26 00:45:55;;;;;;;0.10;0.10;;;;;;;13.47;86.50;97650.38;336297;28;4801;-79
2023/10/26 00:46:10;;;;;;;0.10;0.10;;;;;;;13.46;86.68;97651.34;330422;28;18437;-79
2023/10/26 00:46:22;;;;;;;0.10;0.10;;;;;;;13.43;86.90;97648.97;335929;28;17785;-80
2023/10/26 00:46:35;;;;;;;0.30;0.30;;;;;;;13.47;87.01;97654.78;340181;28;4555;-79
2023/10/26 00:46:52;;;;;;;0.40;0.30;;;;;;;13.49;87.08;97643.28;336376;28;18062;-79
2023/10/26 00:47:04;;;;;;;0.30;0.20;;;;;;;13.48;87.01;97646.84;337630;28;17607;-79
2023/10/26 00:47:16;;;;;;;0.30;0.20;;;;;;;13.46;86.74;97651.34;338024;28;17940;-80
2023/10/26 00:47:29;;;;;;;0.30;0.20;;;;;;;13.55;86.76;97662.84;339944;28;4711;-79
2023/10/26 00:47:41;;;;;;;0.32;0.20;;;;;;;13.55;86.70;97652.41;335333;28;4512;-79
2023/10/26 00:47:53;;;;;;;0.10;0.10;;;;;;;13.59;86.51;97659.06;337409;28;18124;-79
2023/10/26 00:48:06;;;;;;;0.20;0.10;;;;;;;13.58;86.34;97653.03;340086;28;4566;-79
2023/10/26 00:48:19;;;;;;;0.20;0.20;;;;;;;13.58;86.28;97658.25;336474;28;17231;-80
2023/10/26 00:48:32;;;;;;;0.20;0.20;;;;;;;13.61;86.26;97640.69;336188;28;7197;-78
2023/10/26 00:48:44;;;;;;;0.30;0.30;;;;;;;13.67;86.00;97661.91;338771;28;4692;-80
2023/10/26 00:48:57;;;;;;;0.30;0.30;;;;;;;13.70;85.81;97660.84;338731;28;5030;-80
2023/10/26 00:49:12;;;;;;;0.20;0.20;;;;;;;13.66;85.85;97662.03;335126;28;17775;-80
2023/10/26 00:49:24;;;;;;;0.43;0.25;;;;;;;13.72;85.95;97658.94;335555;28;17934;-79
2023/10/26 00:49:38;;;;;;;0.50;0.32;;;;;;;13.70;86.03;97651.25;338838;28;4654;-80
2023/10/26 00:49:50;;;;;;;0.57;0.32;;;;;;;13.68;85.89;97658.38;336236;28;17866;-80
2023/10/26 00:50:03;;;;;;;0.45;0.20;;;;;;;13.65;85.81;97660.38;335827;28;11735;-79
2023/10/26 00:50:15;;;;;;;0.40;0.20;;;;;;;13.69;85.91;97656.59;337413;28;5407;-79
2023/10/26 00:50:28;;;;;;;0.32;0.20;;;;;;;13.65;86.11;97652.53;336881;28;5085;-79
2023/10/26 00:50:41;;;;;;;0.40;0.30;;;;;;;13.59;86.27;97649.44;330248;28;17976;-80
2023/10/26 00:50:53;;;;;;;0.40;0.30;;;;;;;13.50;86.66;97652.78;335106;28;17617;-79
2023/10/26 00:51:05;;;;;;;0.30;0.30;;;;;;;13.55;86.78;97657.63;337578;28;5244;-79
2023/10/26 00:51:18;;;;;;;0.20;0.20;;;;;;;13.51;87.10;97657.03;337365;28;4524;-80
2023/10/26 00:51:30;;;;;;;0.20;0.20;;;;;;;13.45;87.24;97652.28;335190;28;17977;-80
2023/10/26 00:51:47;;;;;;;0.20;0.20;;;;;;;13.47;87.38;97655.59;335220;29;4521;-80
2023/10/26 00:52:02;;;;;;;0.30;0.30;;;;;;;13.56;86.86;97656.69;330168;28;17325;-80
2023/10/26 00:52:14;;;;;;;0.80;0.28;;;;;;;13.54;86.96;97650.75;334590;28;18007;-80
2023/10/26 00:52:27;;;;;;;0.80;0.20;;;;;;;13.54;86.53;97655.97;337560;28;4483;-79
2023/10/26 00:52:39;;;;;;;0.80;0.20;;;;;;;13.51;86.65;97651.81;334485;28;18606;-79
2023/10/26 00:52:52;;;;;;;0.10;0.10;;;;;;;13.49;87.13;97653.72;337422;28;5564;-80
2023/10/26 00:53:04;;;;;;;0.10;0.10;;;;;;;13.51;86.94;97659.66;334832;28;17850;-79
2023/10/26 00:53:19;;;;;;;0.30;0.20;;;;;;;13.53;87.05;97655.13;337312;28;5371;-80
2023/10/26 00:53:32;;;;;;;0.30;0.20;;;;;;;13.50;87.05;97662.38;335160;28;18702;-80
2023/10/26 00:53:45;;;;;;;0.20;0.20;;;;;;;13.44;87.06;97655.84;338091;28;12596;-79
2023/10/26 00:53:57;;;;;;;0.10;0.10;;;;;;;13.39;87.18;97657.97;338146;28;4669;-79
2023/10/26 00:54:09;;;;;;;0.20;0.20;;;;;;;13.39;87.32;97648.34;337393;28;5427;-80
2023/10/26 00:54:22;;;;;;;0.20;0.20;;;;;;;13.34;87.55;97654.88;335048;28;17785;-79
2023/10/26 00:54:34;;;;;;;0.17;0.17;;;;;;;13.35;87.89;97656.53;337168;28;4507;-80
2023/10/26 00:54:47;;;;;;;0.10;0.10;;;;;;;13.35;87.58;97641.72;334387;28;18379;-80
2023/10/26 00:54:59;;;;;;;0.10;0.10;;;;;;;13.31;87.81;97662.94;337030;28;4624;-79
2023/10/26 00:55:11;;;;;;;0.10;0.10;;;;;;;13.38;87.57;97651.94;330154;28;18190;-79
2023/10/26 00:55:24;;;;;;;0.20;0.20;;;;;;;13.43;87.27;97659.41;337491;28;5246;-80
2023/10/26 00:55:38;;;;;;;0.20;0.10;;;;;;;13.47;87.01;97655.59;334966;28;19455;-80
2023/10/26 00:55:52;;;;;;;0.20;0.10;;;;;;;13.46;87.08;97656.56;334665;28;17789;-79
2023/10/26 00:56:04;;;;;;;0.15;0.10;;;;;;;13.51;87.03;97657.03;338428;28;4575;-79
2023/10/26 00:56:19;;;;;;;0.20;0.20;;;;;;;13.55;86.85;97647.19;335747;28;17948;-80
2023/10/26 00:56:31;;;;;;;0.40;0.30;;;;;;;13.62;86.72;97652.75;335885;28;17715;-79
2023/10/26 00:56:43;;;;;;;0.22;0.22;;;;;;;13.69;86.30;97652.19;337790;28;4525;-80
2023/10/26 00:56:56;;;;;;;0.30;0.30;;;;;;;13.73;86.09;97655.38;334300;28;18174;-79
2023/10/26 00:57:09;;;;;;;0.50;0.40;;;;;;;13.70;86.23;97658.22;338365;28;4586;-80
2023/10/26 00:57:23;;;;;;;0.43;0.40;;;;;;;13.73;85.99;97660.63;336091;28;18209;-79
2023/10/26 00:57:36;;;;;;;0.45;0.45;;;;;;;13.72;85.89;97664.16;336123;28;18113;-79
2023/10/26 00:57:48;;;;;;;0.20;0.20;;;;;;;13.70;86.08;97650.41;338718;28;4734;-79
2023/10/26 00:58:00;;;;;;;0.20;0.20;;;;;;;13.71;86.11;97652.06;337795;28;4516;-79
2023/10/26 00:58:14;;;;;;;0.30;0.20;;;;;;;13.75;85.96;97653.50;333194;28;18216;-79
2023/10/26 00:58:27;;;;;;;0.35;0.20;;;;;;;13.76;86.06;97655.13;333499;28;12526;-78
2023/10/26 00:58:39;;;;;;;0.20;0.20;;;;;;;13.67;85.79;97653.25;336884;28;5882;-79
2023/10/26 00:58:51;;;;;;;0.25;0.17;;;;;;;13.65;86.15;97655.16;337699;28;11754;-79
2023/10/26 00:59:04;;;;;;;0.30;0.20;;;;;;;13.65;85.98;97653.38;340005;28;4636;-79
2023/10/26 00:59:17;;;;;;;0.30;0.20;;;;;;;13.69;85.83;97656.59;337593;28;13226;-79
2023/10/26 00:59:30;;;;;;;0.20;0.20;;;;;;;13.67;85.77;97651.47;335599;28;5075;-79